sensor_id;sensor_type;location;lat;lon;timestamp;pressure;altitude;pressure_sealevel;temperature;humidity
64632;BME280;58358;50.936;0.246;2023-02-28T00:00:49;102558.65;;;1.59;77.44
64632;BME280;58358;50.936;0.246;2023-02-28T00:03:15;102560.67;;;1.09;79.27
64632;BME280;58358;50.936;0.246;2023-02-28T00:05:40;102558.57;;;0.32;81.84
64632;BME280;58358;50.936;0.246;2023-02-28T00:08:05;102557.79;;;0.63;84.00
64632;BME280;58358;50.936;0.246;2023-02-28T00:10:31;102559.77;;;1.45;81.57
64632;BME280;58358;50.936;0.246;2023-02-28T00:12:58;102558.24;;;1.77;79.10
64632;BME280;58358;50.936;0.246;2023-02-28T00:15:21;102563.31;;;1.15;83.10
64632;BME280;58358;50.936;0.246;2023-02-28T00:17:46;102562.69;;;1.10;82.31
64632;BME280;58358;50.936;0.246;2023-02-28T00:20:13;102561.97;;;0.69;82.76
64632;BME280;58358;50.936;0.246;2023-02-28T00:22:38;102560.84;;;0.66;84.26
64632;BME280;58358;50.936;0.246;2023-02-28T00:25:03;102562.67;;;1.31;83.29
64632;BME280;58358;50.936;0.246;2023-02-28T00:27:28;102567.86;;;1.79;81.23
64632;BME280;58358;50.936;0.246;2023-02-28T00:29:54;102568.07;;;1.93;80.00
64632;BME280;58358;50.936;0.246;2023-02-28T00:32:19;102566.75;;;2.07;78.22
64632;BME280;58358;50.936;0.246;2023-02-28T00:34:45;102571.26;;;0.81;82.26
64632;BME280;58358;50.936;0.246;2023-02-28T00:37:11;102568.01;;;0.46;85.66
64632;BME280;58358;50.936;0.246;2023-02-28T00:39:38;102572.88;;;0.93;83.36
64632;BME280;58358;50.936;0.246;2023-02-28T00:42:00;102573.70;;;0.56;84.37
64632;BME280;58358;50.936;0.246;2023-02-28T00:44:27;102572.46;;;1.21;84.19
64632;BME280;58358;50.936;0.246;2023-02-28T00:46:51;102574.21;;;1.44;83.30
64632;BME280;58358;50.936;0.246;2023-02-28T00:49:18;102579.20;;;1.23;84.44
64632;BME280;58358;50.936;0.246;2023-02-28T00:51:42;102574.02;;;0.80;83.02
64632;BME280;58358;50.936;0.246;2023-02-28T00:54:08;102574.64;;;1.56;81.30
64632;BME280;58358;50.936;0.246;2023-02-28T00:56:33;102574.31;;;0.92;83.80
64632;BME280;58358;50.936;0.246;2023-02-28T00:58:59;102573.08;;;0.66;84.47
64632;BME280;58358;50.936;0.246;2023-02-28T01:01:24;102575.20;;;0.88;84.52
64632;BME280;58358;50.936;0.246;2023-02-28T01:03:50;102567.84;;;0.26;86.54
64632;BME280;58358;50.936;0.246;2023-02-28T01:06:15;102571.15;;;0.66;86.05
64632;BME280;58358;50.936;0.246;2023-02-28T01:08:41;102569.87;;;1.48;83.85
64632;BME280;58358;50.936;0.246;2023-02-28T01:11:09;102572.35;;;0.92;83.62
64632;BME280;58358;50.936;0.246;2023-02-28T01:13:32;102574.97;;;0.84;85.28
64632;BME280;58358;50.936;0.246;2023-02-28T01:15:57;102579.69;;;1.14;83.19
64632;BME280;58358;50.936;0.246;2023-02-28T01:18:23;102580.25;;;1.67;82.11
64632;BME280;58358;50.936;0.246;2023-02-28T01:20:48;102578.59;;;1.91;79.23
64632;BME280;58358;50.936;0.246;2023-02-28T01:23:14;102572.82;;;2.17;77.44
64632;BME280;58358;50.936;0.246;2023-02-28T01:25:39;102574.69;;;1.14;81.54
64632;BME280;58358;50.936;0.246;2023-02-28T01:28:05;102572.61;;;0.13;86.20
64632;BME280;58358;50.936;0.246;2023-02-28T01:30:30;102565.58;;;0.44;85.60
64632;BME280;58358;50.936;0.246;2023-02-28T01:32:55;102569.83;;;0.58;86.74
64632;BME280;58358;50.936;0.246;2023-02-28T01:35:20;102569.53;;;1.30;84.48
64632;BME280;58358;50.936;0.246;2023-02-28T01:37:46;102564.79;;;1.10;84.05
64632;BME280;58358;50.936;0.246;2023-02-28T01:40:13;102562.72;;;0.54;86.34
64632;BME280;58358;50.936;0.246;2023-02-28T01:42:37;102559.04;;;0.31;86.58
64632;BME280;58358;50.936;0.246;2023-02-28T01:45:08;102563.23;;;0.92;85.39
64632;BME280;58358;50.936;0.246;2023-02-28T01:47:30;102558.61;;;0.46;85.38
64632;BME280;58358;50.936;0.246;2023-02-28T01:49:52;102557.42;;;0.69;83.70
64632;BME280;58358;50.936;0.246;2023-02-28T01:52:17;102556.23;;;0.20;84.97
64632;BME280;58358;50.936;0.246;2023-02-28T01:54:42;102556.08;;;0.70;85.42
64632;BME280;58358;50.936;0.246;2023-02-28T01:57:10;102554.08;;;-0.02;86.87
64632;BME280;58358;50.936;0.246;2023-02-28T01:59:35;102553.56;;;0.59;85.61
64632;BME280;58358;50.936;0.246;2023-02-28T02:01:57;102554.45;;;-0.09;86.22
64632;BME280;58358;50.936;0.246;2023-02-28T02:04:23;102564.21;;;0.40;85.89
64632;BME280;58358;50.936;0.246;2023-02-28T02:06:47;102563.43;;;0.49;84.39
64632;BME280;58358;50.936;0.246;2023-02-28T02:09:12;102561.33;;;1.84;79.30
64632;BME280;58358;50.936;0.246;2023-02-28T02:11:40;102558.80;;;1.93;76.73
64632;BME280;58358;50.936;0.246;2023-02-28T02:14:15;102570.81;;;1.20;80.52
64632;BME280;58358;50.936;0.246;2023-02-28T02:16:36;102567.91;;;0.58;82.36
64632;BME280;58358;50.936;0.246;2023-02-28T02:18:54;102566.42;;;0.93;83.73
64632;BME280;58358;50.936;0.246;2023-02-28T02:21:36;102573.89;;;1.34;81.59
64632;BME280;58358;50.936;0.246;2023-02-28T02:26:18;102575.43;;;1.09;80.87
64632;BME280;58358;50.936;0.246;2023-02-28T02:31:11;102570.51;;;1.23;82.66
64632;BME280;58358;50.936;0.246;2023-02-28T02:33:36;102570.59;;;0.69;84.37
64632;BME280;58358;50.936;0.246;2023-02-28T02:35:50;102569.21;;;0.50;83.38
64632;BME280;58358;50.936;0.246;2023-02-28T02:38:18;102570.88;;;-0.67;86.41
64632;BME280;58358;50.936;0.246;2023-02-28T02:40:42;102572.68;;;0.01;86.87
64632;BME280;58358;50.936;0.246;2023-02-28T02:43:08;102568.84;;;-0.38;90.20
64632;BME280;58358;50.936;0.246;2023-02-28T02:45:32;102565.44;;;0.39;86.14
64632;BME280;58358;50.936;0.246;2023-02-28T02:47:54;102568.17;;;0.13;86.74
64632;BME280;58358;50.936;0.246;2023-02-28T02:50:24;102569.32;;;0.65;85.04
64632;BME280;58358;50.936;0.246;2023-02-28T02:52:50;102571.47;;;-0.17;89.30
64632;BME280;58358;50.936;0.246;2023-02-28T02:55:12;102568.42;;;0.73;86.40
64632;BME280;58358;50.936;0.246;2023-02-28T02:57:38;102573.20;;;-0.16;88.53
64632;BME280;58358;50.936;0.246;2023-02-28T03:00:00;102570.34;;;0.51;87.39
64632;BME280;58358;50.936;0.246;2023-02-28T03:02:26;102568.34;;;0.41;85.94
64632;BME280;58358;50.936;0.246;2023-02-28T03:04:52;102562.84;;;0.55;86.07
64632;BME280;58358;50.936;0.246;2023-02-28T03:07:15;102564.12;;;0.91;84.99
64632;BME280;58358;50.936;0.246;2023-02-28T03:09:40;102560.63;;;-0.04;88.42
64632;BME280;58358;50.936;0.246;2023-02-28T03:12:09;102562.27;;;0.03;89.90
64632;BME280;58358;50.936;0.246;2023-02-28T03:14:40;102566.43;;;0.47;89.55
64632;BME280;58358;50.936;0.246;2023-02-28T03:17:12;102568.68;;;-0.31;92.11
64632;BME280;58358;50.936;0.246;2023-02-28T03:19:32;102559.07;;;-0.57;92.71
64632;BME280;58358;50.936;0.246;2023-02-28T03:21:50;102558.15;;;0.31;92.18
64632;BME280;58358;50.936;0.246;2023-02-28T03:24:18;102552.85;;;0.04;91.17
64632;BME280;58358;50.936;0.246;2023-02-28T03:26:41;102555.22;;;0.11;91.78
64632;BME280;58358;50.936;0.246;2023-02-28T03:29:04;102556.13;;;-0.95;94.05
64632;BME280;58358;50.936;0.246;2023-02-28T03:31:30;102552.65;;;-0.20;94.03
64632;BME280;58358;50.936;0.246;2023-02-28T03:33:57;102557.70;;;-0.92;96.13
64632;BME280;58358;50.936;0.246;2023-02-28T03:36:20;102563.26;;;-0.50;95.40
64632;BME280;58358;50.936;0.246;2023-02-28T03:38:45;102562.80;;;-0.15;94.46
64632;BME280;58358;50.936;0.246;2023-02-28T03:41:12;102567.07;;;-0.63;95.27
64632;BME280;58358;50.936;0.246;2023-02-28T03:43:35;102568.75;;;0.26;93.38
64632;BME280;58358;50.936;0.246;2023-02-28T03:46:01;102566.63;;;0.48;92.15
64632;BME280;58358;50.936;0.246;2023-02-28T03:48:27;102567.78;;;-0.52;93.68
64632;BME280;58358;50.936;0.246;2023-02-28T03:50:50;102574.61;;;-0.16;94.91
64632;BME280;58358;50.936;0.246;2023-02-28T03:53:18;102572.70;;;-0.60;94.94
64632;BME280;58358;50.936;0.246;2023-02-28T03:55:42;102572.06;;;-0.12;95.34
64632;BME280;58358;50.936;0.246;2023-02-28T03:58:09;102579.21;;;-0.09;96.10
64632;BME280;58358;50.936;0.246;2023-02-28T04:00:32;102584.57;;;-0.70;96.37
64632;BME280;58358;50.936;0.246;2023-02-28T04:02:55;102582.48;;;-0.54;96.91
64632;BME280;58358;50.936;0.246;2023-02-28T04:05:20;102585.84;;;-0.14;97.94
64632;BME280;58358;50.936;0.246;2023-02-28T04:07:45;102581.31;;;-0.57;98.31
64632;BME280;58358;50.936;0.246;2023-02-28T04:10:11;102571.79;;;-0.67;97.08
64632;BME280;58358;50.936;0.246;2023-02-28T04:12:35;102569.00;;;-0.51;97.36
64632;BME280;58358;50.936;0.246;2023-02-28T04:15:00;102558.34;;;-0.28;97.63
64632;BME280;58358;50.936;0.246;2023-02-28T04:17:25;102561.78;;;0.03;97.09
64632;BME280;58358;50.936;0.246;2023-02-28T04:19:51;102560.31;;;-0.22;97.71
64632;BME280;58358;50.936;0.246;2023-02-28T04:22:16;102565.55;;;-0.52;99.59
64632;BME280;58358;50.936;0.246;2023-02-28T04:24:41;102563.02;;;-0.41;98.23
64632;BME280;58358;50.936;0.246;2023-02-28T04:27:08;102563.60;;;-0.49;97.87
64632;BME280;58358;50.936;0.246;2023-02-28T04:29:32;102562.33;;;-0.17;98.07
64632;BME280;58358;50.936;0.246;2023-02-28T04:31:58;102566.86;;;-0.46;98.46
64632;BME280;58358;50.936;0.246;2023-02-28T04:34:22;102573.69;;;-0.53;99.96
64632;BME280;58358;50.936;0.246;2023-02-28T04:36:47;102568.96;;;-0.30;99.17
64632;BME280;58358;50.936;0.246;2023-02-28T04:39:12;102574.98;;;-0.92;100.00
64632;BME280;58358;50.936;0.246;2023-02-28T04:41:37;102578.81;;;-0.50;100.00
64632;BME280;58358;50.936;0.246;2023-02-28T04:44:02;102577.14;;;-0.67;99.92
64632;BME280;58358;50.936;0.246;2023-02-28T04:46:27;102574.00;;;-0.04;98.13
64632;BME280;58358;50.936;0.246;2023-02-28T04:48:52;102576.64;;;-0.59;98.78
64632;BME280;58358;50.936;0.246;2023-02-28T04:51:18;102568.40;;;-0.12;98.70
64632;BME280;58358;50.936;0.246;2023-02-28T04:53:43;102570.20;;;-0.44;99.41
64632;BME280;58358;50.936;0.246;2023-02-28T04:56:11;102574.97;;;-1.04;98.93
64632;BME280;58358;50.936;0.246;2023-02-28T04:58:34;102571.09;;;-1.25;100.00
64632;BME280;58358;50.936;0.246;2023-02-28T05:01:03;102573.16;;;-0.53;100.00
64632;BME280;58358;50.936;0.246;2023-02-28T05:03:24;102573.41;;;0.48;97.23
64632;BME280;58358;50.936;0.246;2023-02-28T05:05:49;102568.78;;;0.98;93.18
64632;BME280;58358;50.936;0.246;2023-02-28T05:08:14;102567.95;;;-0.68;96.30
64632;BME280;58358;50.936;0.246;2023-02-28T05:10:39;102569.76;;;-0.28;97.50
64632;BME280;58358;50.936;0.246;2023-02-28T05:13:04;102569.32;;;-0.49;97.95
64632;BME280;58358;50.936;0.246;2023-02-28T05:15:30;102572.69;;;-0.45;97.00
64632;BME280;58358;50.936;0.246;2023-02-28T05:17:55;102565.48;;;-0.15;95.91
64632;BME280;58358;50.936;0.246;2023-02-28T05:20:20;102567.19;;;-1.35;99.42
64632;BME280;58358;50.936;0.246;2023-02-28T05:22:46;102573.48;;;-1.08;99.40
64632;BME280;58358;50.936;0.246;2023-02-28T05:25:13;102578.52;;;0.04;97.35
64632;BME280;58358;50.936;0.246;2023-02-28T05:27:35;102582.95;;;-0.84;99.27
64632;BME280;58358;50.936;0.246;2023-02-28T05:30:01;102589.19;;;-0.47;97.90
64632;BME280;58358;50.936;0.246;2023-02-28T05:32:26;102592.01;;;-0.98;100.00
64632;BME280;58358;50.936;0.246;2023-02-28T05:34:52;102593.55;;;-0.77;99.61
64632;BME280;58358;50.936;0.246;2023-02-28T05:37:17;102589.47;;;-0.71;98.56
64632;BME280;58358;50.936;0.246;2023-02-28T05:39:43;102596.20;;;-0.57;98.97
64632;BME280;58358;50.936;0.246;2023-02-28T05:42:09;102601.07;;;-0.77;99.24
64632;BME280;58358;50.936;0.246;2023-02-28T05:44:34;102609.30;;;-0.61;99.25
64632;BME280;58358;50.936;0.246;2023-02-28T05:46:59;102609.09;;;-0.33;99.08
64632;BME280;58358;50.936;0.246;2023-02-28T05:49:25;102611.41;;;-0.34;98.71
64632;BME280;58358;50.936;0.246;2023-02-28T05:51:50;102617.53;;;-0.11;97.69
64632;BME280;58358;50.936;0.246;2023-02-28T05:54:16;102616.06;;;-0.60;99.61
64632;BME280;58358;50.936;0.246;2023-02-28T05:56:41;102615.43;;;-1.07;100.00
64632;BME280;58358;50.936;0.246;2023-02-28T05:59:07;102614.96;;;-0.21;100.00
64632;BME280;58358;50.936;0.246;2023-02-28T06:01:34;102610.53;;;-0.47;99.20
64632;BME280;58358;50.936;0.246;2023-02-28T06:03:58;102609.13;;;-0.33;98.58
64632;BME280;58358;50.936;0.246;2023-02-28T06:06:22;102607.73;;;-0.82;99.82
64632;BME280;58358;50.936;0.246;2023-02-28T06:08:47;102608.12;;;-0.59;99.88
64632;BME280;58358;50.936;0.246;2023-02-28T06:11:13;102608.61;;;0.44;96.35
64632;BME280;58358;50.936;0.246;2023-02-28T06:13:38;102604.57;;;-0.28;98.95
64632;BME280;58358;50.936;0.246;2023-02-28T06:16:04;102606.59;;;-0.93;99.07
64632;BME280;58358;50.936;0.246;2023-02-28T06:18:28;102605.97;;;-0.66;99.13
64632;BME280;58358;50.936;0.246;2023-02-28T06:20:55;102606.69;;;-0.48;100.00
64632;BME280;58358;50.936;0.246;2023-02-28T06:23:19;102602.06;;;0.11;98.41
64632;BME280;58358;50.936;0.246;2023-02-28T06:25:45;102608.57;;;-0.19;97.32
64632;BME280;58358;50.936;0.246;2023-02-28T06:28:09;102611.30;;;0.35;96.48
64632;BME280;58358;50.936;0.246;2023-02-28T06:30:34;102612.82;;;-0.31;97.14
64632;BME280;58358;50.936;0.246;2023-02-28T06:33:00;102612.50;;;-0.02;99.60
64632;BME280;58358;50.936;0.246;2023-02-28T06:35:25;102607.21;;;-0.73;99.98
64632;BME280;58358;50.936;0.246;2023-02-28T06:37:50;102614.15;;;-0.83;100.00
64632;BME280;58358;50.936;0.246;2023-02-28T06:40:16;102611.52;;;-0.52;97.78
64632;BME280;58358;50.936;0.246;2023-02-28T06:42:41;102614.67;;;-0.32;97.07
64632;BME280;58358;50.936;0.246;2023-02-28T06:45:07;102615.86;;;-0.34;98.42
64632;BME280;58358;50.936;0.246;2023-02-28T06:47:31;102611.40;;;-0.39;98.57
64632;BME280;58358;50.936;0.246;2023-02-28T06:49:56;102618.51;;;0.05;97.50
64632;BME280;58358;50.936;0.246;2023-02-28T06:52:22;102619.70;;;-0.33;100.00
64632;BME280;58358;50.936;0.246;2023-02-28T06:54:47;102624.90;;;-0.59;100.00
64632;BME280;58358;50.936;0.246;2023-02-28T06:57:12;102620.97;;;-0.48;100.00
64632;BME280;58358;50.936;0.246;2023-02-28T06:59:37;102619.48;;;-0.52;100.00
64632;BME280;58358;50.936;0.246;2023-02-28T07:02:02;102619.18;;;0.00;98.62
64632;BME280;58358;50.936;0.246;2023-02-28T07:04:28;102619.62;;;-0.59;99.03
64632;BME280;58358;50.936;0.246;2023-02-28T07:06:54;102617.27;;;-0.05;97.75
64632;BME280;58358;50.936;0.246;2023-02-28T07:09:20;102619.97;;;-0.63;100.00
64632;BME280;58358;50.936;0.246;2023-02-28T07:11:44;102623.74;;;-0.68;100.00
64632;BME280;58358;50.936;0.246;2023-02-28T07:14:09;102626.59;;;-0.15;99.79
64632;BME280;58358;50.936;0.246;2023-02-28T07:16:35;102620.97;;;-0.74;99.50
64632;BME280;58358;50.936;0.246;2023-02-28T07:19:00;102630.86;;;-0.36;99.34
64632;BME280;58358;50.936;0.246;2023-02-28T07:21:25;102630.04;;;-0.35;100.00
64632;BME280;58358;50.936;0.246;2023-02-28T07:23:50;102628.71;;;0.28;98.35
64632;BME280;58358;50.936;0.246;2023-02-28T07:26:18;102625.78;;;-0.34;99.69
64632;BME280;58358;50.936;0.246;2023-02-28T07:28:41;102626.27;;;-0.27;99.56
64632;BME280;58358;50.936;0.246;2023-02-28T07:31:07;102620.08;;;-0.37;99.45
64632;BME280;58358;50.936;0.246;2023-02-28T07:33:33;102623.18;;;-0.57;100.00
64632;BME280;58358;50.936;0.246;2023-02-28T07:36:00;102622.40;;;-0.28;98.96
64632;BME280;58358;50.936;0.246;2023-02-28T07:38:22;102620.12;;;0.07;98.95
64632;BME280;58358;50.936;0.246;2023-02-28T07:40:48;102624.04;;;-0.83;100.00
64632;BME280;58358;50.936;0.246;2023-02-28T07:43:13;102622.50;;;-0.02;99.19
64632;BME280;58358;50.936;0.246;2023-02-28T07:45:39;102628.42;;;-0.41;100.00
64632;BME280;58358;50.936;0.246;2023-02-28T07:48:04;102633.34;;;-0.57;100.00
64632;BME280;58358;50.936;0.246;2023-02-28T07:50:29;102630.24;;;-0.68;100.00
64632;BME280;58358;50.936;0.246;2023-02-28T07:52:55;102632.76;;;-0.35;100.00
64632;BME280;58358;50.936;0.246;2023-02-28T07:55:20;102637.95;;;0.27;98.16
64632;BME280;58358;50.936;0.246;2023-02-28T07:57:46;102637.29;;;-0.70;97.80
64632;BME280;58358;50.936;0.246;2023-02-28T08:00:12;102633.59;;;-0.10;97.94
64632;BME280;58358;50.936;0.246;2023-02-28T08:02:37;102639.74;;;0.30;97.76
64632;BME280;58358;50.936;0.246;2023-02-28T08:05:02;102637.75;;;0.74;96.28
64632;BME280;58358;50.936;0.246;2023-02-28T08:07:27;102639.89;;;0.12;94.99
64632;BME280;58358;50.936;0.246;2023-02-28T08:09:52;102640.80;;;1.48;91.97
64632;BME280;58358;50.936;0.246;2023-02-28T08:12:17;102645.22;;;1.23;92.08
64632;BME280;58358;50.936;0.246;2023-02-28T08:14:43;102640.87;;;0.64;93.64
64632;BME280;58358;50.936;0.246;2023-02-28T08:17:10;102644.18;;;0.23;94.30
64632;BME280;58358;50.936;0.246;2023-02-28T08:19:34;102647.29;;;-0.24;96.95
64632;BME280;58358;50.936;0.246;2023-02-28T08:22:00;102645.79;;;0.47;95.26
64632;BME280;58358;50.936;0.246;2023-02-28T08:24:25;102646.71;;;0.26;95.07
64632;BME280;58358;50.936;0.246;2023-02-28T08:26:51;102654.05;;;0.13;96.14
64632;BME280;58358;50.936;0.246;2023-02-28T08:29:17;102647.11;;;-0.60;96.14
64632;BME280;58358;50.936;0.246;2023-02-28T08:31:42;102649.42;;;-0.17;98.72
64632;BME280;58358;50.936;0.246;2023-02-28T08:34:07;102642.51;;;-0.08;98.85
64632;BME280;58358;50.936;0.246;2023-02-28T08:36:33;102643.91;;;0.23;97.66
64632;BME280;58358;50.936;0.246;2023-02-28T08:38:58;102642.36;;;0.48;96.30
64632;BME280;58358;50.936;0.246;2023-02-28T08:41:24;102633.41;;;0.97;93.57
64632;BME280;58358;50.936;0.246;2023-02-28T08:43:49;102638.37;;;0.75;93.71
64632;BME280;58358;50.936;0.246;2023-02-28T08:46:15;102635.24;;;0.14;95.02
64632;BME280;58358;50.936;0.246;2023-02-28T08:48:41;102629.96;;;0.26;94.64
64632;BME280;58358;50.936;0.246;2023-02-28T08:51:07;102628.53;;;0.78;94.54
64632;BME280;58358;50.936;0.246;2023-02-28T08:53:32;102623.60;;;0.30;93.10
64632;BME280;58358;50.936;0.246;2023-02-28T08:55:58;102615.90;;;0.71;93.33
64632;BME280;58358;50.936;0.246;2023-02-28T08:58:23;102617.97;;;1.34;90.56
64632;BME280;58358;50.936;0.246;2023-02-28T09:00:48;102609.92;;;0.86;89.63
64632;BME280;58358;50.936;0.246;2023-02-28T09:03:13;102615.62;;;0.72;91.34
64632;BME280;58358;50.936;0.246;2023-02-28T09:05:38;102624.00;;;0.50;92.76
64632;BME280;58358;50.936;0.246;2023-02-28T09:08:05;102619.40;;;-0.16;95.68
64632;BME280;58358;50.936;0.246;2023-02-28T09:10:30;102622.82;;;0.39;94.78
64632;BME280;58358;50.936;0.246;2023-02-28T09:12:55;102626.17;;;0.62;94.54
64632;BME280;58358;50.936;0.246;2023-02-28T09:15:21;102622.12;;;0.22;93.15
64632;BME280;58358;50.936;0.246;2023-02-28T09:17:46;102630.07;;;0.61;94.22
64632;BME280;58358;50.936;0.246;2023-02-28T09:20:12;102627.70;;;1.18;91.95
64632;BME280;58358;50.936;0.246;2023-02-28T09:22:37;102625.15;;;1.16;89.12
64632;BME280;58358;50.936;0.246;2023-02-28T09:25:03;102625.47;;;0.91;90.29
64632;BME280;58358;50.936;0.246;2023-02-28T09:27:28;102633.72;;;1.40;89.58
64632;BME280;58358;50.936;0.246;2023-02-28T09:29:53;102637.20;;;1.03;89.45
64632;BME280;58358;50.936;0.246;2023-02-28T09:32:20;102629.86;;;1.28;89.36
64632;BME280;58358;50.936;0.246;2023-02-28T09:34:45;102633.89;;;1.34;88.80
64632;BME280;58358;50.936;0.246;2023-02-28T09:37:11;102628.91;;;1.13;89.73
64632;BME280;58358;50.936;0.246;2023-02-28T09:39:37;102627.10;;;0.76;89.52
64632;BME280;58358;50.936;0.246;2023-02-28T09:42:02;102629.43;;;1.40;89.22
64632;BME280;58358;50.936;0.246;2023-02-28T09:44:32;102631.04;;;1.67;87.33
64632;BME280;58358;50.936;0.246;2023-02-28T09:46:57;102629.81;;;2.12;84.78
64632;BME280;58358;50.936;0.246;2023-02-28T09:49:22;102631.41;;;1.45;85.31
64632;BME280;58358;50.936;0.246;2023-02-28T09:51:49;102637.06;;;2.76;83.03
64632;BME280;58358;50.936;0.246;2023-02-28T09:54:14;102640.20;;;2.03;84.17
64632;BME280;58358;50.936;0.246;2023-02-28T09:56:37;102631.64;;;1.71;86.33
64632;BME280;58358;50.936;0.246;2023-02-28T09:59:04;102632.37;;;1.19;88.50
64632;BME280;58358;50.936;0.246;2023-02-28T10:01:33;102630.48;;;1.27;89.52
64632;BME280;58358;50.936;0.246;2023-02-28T10:03:56;102631.58;;;1.46;88.67
64632;BME280;58358;50.936;0.246;2023-02-28T10:06:19;102617.68;;;1.20;88.52
64632;BME280;58358;50.936;0.246;2023-02-28T10:08:47;102613.58;;;1.00;89.76
64632;BME280;58358;50.936;0.246;2023-02-28T10:11:11;102622.26;;;1.17;88.69
64632;BME280;58358;50.936;0.246;2023-02-28T10:13:35;102616.89;;;1.45;86.99
64632;BME280;58358;50.936;0.246;2023-02-28T10:16:03;102611.11;;;1.83;86.00
64632;BME280;58358;50.936;0.246;2023-02-28T10:18:29;102616.98;;;2.48;85.35
64632;BME280;58358;50.936;0.246;2023-02-28T10:20:51;102614.94;;;3.37;82.39
64632;BME280;58358;50.936;0.246;2023-02-28T10:23:20;102603.70;;;2.88;80.99
64632;BME280;58358;50.936;0.246;2023-02-28T10:25:45;102601.65;;;2.23;83.09
64632;BME280;58358;50.936;0.246;2023-02-28T10:28:12;102598.41;;;1.55;84.93
64632;BME280;58358;50.936;0.246;2023-02-28T10:30:32;102594.16;;;1.19;87.61
64632;BME280;58358;50.936;0.246;2023-02-28T10:32:58;102592.12;;;1.43;87.33
64632;BME280;58358;50.936;0.246;2023-02-28T10:35:25;102595.48;;;1.58;86.91
64632;BME280;58358;50.936;0.246;2023-02-28T10:37:53;102595.39;;;2.11;84.52
64632;BME280;58358;50.936;0.246;2023-02-28T10:40:27;102598.86;;;1.69;84.65
64632;BME280;58358;50.936;0.246;2023-02-28T10:42:41;102591.37;;;3.05;80.14
64632;BME280;58358;50.936;0.246;2023-02-28T10:45:11;102584.80;;;2.79;81.81
64632;BME280;58358;50.936;0.246;2023-02-28T10:47:33;102589.58;;;3.09;81.44
64632;BME280;58358;50.936;0.246;2023-02-28T10:49:57;102588.69;;;4.36;78.10
64632;BME280;58358;50.936;0.246;2023-02-28T10:52:33;102585.62;;;3.37;79.32
64632;BME280;58358;50.936;0.246;2023-02-28T10:54:48;102578.40;;;2.56;81.16
64632;BME280;58358;50.936;0.246;2023-02-28T10:57:17;102571.96;;;3.71;80.09
64632;BME280;58358;50.936;0.246;2023-02-28T10:59:40;102570.72;;;2.93;79.63
64632;BME280;58358;50.936;0.246;2023-02-28T11:04:34;102585.01;;;2.40;82.10
64632;BME280;58358;50.936;0.246;2023-02-28T11:06:58;102581.36;;;2.48;82.08
64632;BME280;58358;50.936;0.246;2023-02-28T11:09:24;102581.54;;;2.17;83.51
64632;BME280;58358;50.936;0.246;2023-02-28T11:11:49;102564.08;;;2.60;81.73
64632;BME280;58358;50.936;0.246;2023-02-28T11:14:20;102575.91;;;2.60;83.02
64632;BME280;58358;50.936;0.246;2023-02-28T11:16:40;102572.43;;;2.48;82.50
64632;BME280;58358;50.936;0.246;2023-02-28T11:19:16;102563.64;;;3.01;81.91
64632;BME280;58358;50.936;0.246;2023-02-28T11:21:33;102561.24;;;2.46;82.69
64632;BME280;58358;50.936;0.246;2023-02-28T11:24:01;102572.63;;;2.08;82.89
64632;BME280;58358;50.936;0.246;2023-02-28T11:26:37;102568.64;;;1.91;84.36
64632;BME280;58358;50.936;0.246;2023-02-28T11:28:48;102567.50;;;2.94;81.15
64632;BME280;58358;50.936;0.246;2023-02-28T11:31:17;102559.19;;;3.23;80.75
64632;BME280;58358;50.936;0.246;2023-02-28T11:33:42;102558.78;;;3.57;79.46
64632;BME280;58358;50.936;0.246;2023-02-28T11:36:10;102558.75;;;3.43;78.74
64632;BME280;58358;50.936;0.246;2023-02-28T11:38:32;102558.15;;;3.86;78.79
64632;BME280;58358;50.936;0.246;2023-02-28T11:41:07;102556.34;;;3.19;80.67
64632;BME280;58358;50.936;0.246;2023-02-28T11:43:29;102551.14;;;3.05;82.90
64632;BME280;58358;50.936;0.246;2023-02-28T11:45:57;102550.58;;;3.00;81.89
64632;BME280;58358;50.936;0.246;2023-02-28T11:48:20;102555.08;;;3.41;79.71
64632;BME280;58358;50.936;0.246;2023-02-28T11:50:45;102547.22;;;2.85;80.63
64632;BME280;58358;50.936;0.246;2023-02-28T11:53:10;102539.73;;;2.74;80.95
64632;BME280;58358;50.936;0.246;2023-02-28T11:55:35;102528.21;;;2.84;82.57
64632;BME280;58358;50.936;0.246;2023-02-28T11:58:16;102536.06;;;2.71;82.50
64632;BME280;58358;50.936;0.246;2023-02-28T12:00:32;102545.57;;;3.45;81.72
64632;BME280;58358;50.936;0.246;2023-02-28T12:02:58;102532.13;;;2.30;83.41
64632;BME280;58358;50.936;0.246;2023-02-28T12:05:20;102541.31;;;2.61;83.16
64632;BME280;58358;50.936;0.246;2023-02-28T12:07:46;102540.78;;;2.11;84.95
64632;BME280;58358;50.936;0.246;2023-02-28T12:10:09;102536.64;;;2.31;83.82
64632;BME280;58358;50.936;0.246;2023-02-28T12:12:38;102543.61;;;2.76;83.05
64632;BME280;58358;50.936;0.246;2023-02-28T12:15:11;102529.55;;;2.73;82.45
64632;BME280;58358;50.936;0.246;2023-02-28T12:17:32;102519.43;;;2.44;83.30
64632;BME280;58358;50.936;0.246;2023-02-28T12:19:51;102518.53;;;2.54;85.04
64632;BME280;58358;50.936;0.246;2023-02-28T12:22:20;102512.97;;;2.32;85.14
64632;BME280;58358;50.936;0.246;2023-02-28T12:24:47;102506.43;;;2.03;85.29
64632;BME280;58358;50.936;0.246;2023-02-28T12:27:03;102499.28;;;2.29;85.05
64632;BME280;58358;50.936;0.246;2023-02-28T12:29:29;102494.34;;;2.77;83.62
64632;BME280;58358;50.936;0.246;2023-02-28T12:31:55;102494.45;;;3.02;82.11
64632;BME280;58358;50.936;0.246;2023-02-28T12:34:20;102495.64;;;2.67;82.90
64632;BME280;58358;50.936;0.246;2023-02-28T12:36:44;102492.85;;;2.57;83.87
64632;BME280;58358;50.936;0.246;2023-02-28T12:39:11;102490.18;;;3.04;83.34
64632;BME280;58358;50.936;0.246;2023-02-28T12:41:39;102480.22;;;2.23;84.75
64632;BME280;58358;50.936;0.246;2023-02-28T12:44:02;102483.58;;;2.63;84.43
64632;BME280;58358;50.936;0.246;2023-02-28T12:46:30;102484.16;;;2.14;86.51
64632;BME280;58358;50.936;0.246;2023-02-28T12:48:53;102486.53;;;2.82;84.30
64632;BME280;58358;50.936;0.246;2023-02-28T12:51:18;102481.32;;;2.83;85.34